Time;durP1;ratioP1;P1;durP2;ratioP2;P2;SDS_P1;SDS_P2;PMS_P1;PMS_P2;Temp;Humidity;BMP_temperature;BMP_pressure;BME280_temperature;BME280_humidity;BME280_pressure;Samples;Min_cycle;Max_cycle;Signal;HPM_P1;HPM_P2
2021/01/14 00:00:09;;;;;;;0.00;0.00;;;;;;;;;;5032727;28;20192;-61
2021/01/14 00:02:36;;;;;;;0.00;0.00;;;;;;;;;;5036546;28;20607;-62
2021/01/14 00:05:12;;;;;;;0.07;0.07;;;;;;;;;;5039229;28;20219;-63
2021/01/14 00:07:39;;;;;;;0.00;0.00;;;;;;;;;;5040278;28;20202;-62
2021/01/14 00:10:07;;;;;;;0.00;0.00;;;;;;;;;;5038516;28;20172;-62
2021/01/14 00:12:34;;;;;;;0.20;0.20;;;;;;;;;;5033718;28;20191;-62
2021/01/14 00:15:01;;;;;;;0.00;0.00;;;;;;;;;;5035201;28;20638;-63
2021/01/14 00:17:31;;;;;;;0.87;0.37;;;;;;;;;;5038012;28;20192;-61
2021/01/14 00:19:58;;;;;;;0.00;0.00;;;;;;;;;;5042026;28;20265;-62
2021/01/14 00:22:26;;;;;;;0.00;0.00;;;;;;;;;;5036170;28;20238;-60
2021/01/14 00:24:53;;;;;;;0.00;0.00;;;;;;;;;;5036380;28;20471;-60
2021/01/14 00:27:19;;;;;;;0.00;0.00;;;;;;;;;;5035388;28;20269;-60
2021/01/14 00:29:46;;;;;;;0.00;0.00;;;;;;;;;;5035788;28;20847;-61
2021/01/14 00:32:16;;;;;;;0.00;0.00;;;;;;;;;;5036781;28;20194;-61
2021/01/14 00:34:43;;;;;;;0.00;0.00;;;;;;;;;;5034985;28;20191;-60
2021/01/14 00:39:56;;;;;;;0.00;0.00;;;;;;;;;;5033738;28;20226;-61
2021/01/14 00:42:23;;;;;;;0.00;0.00;;;;;;;;;;5042535;28;20182;-62
2021/01/14 00:44:55;;;;;;;0.37;0.37;;;;;;;;;;5033746;28;20183;-61
2021/01/14 00:47:22;;;;;;;0.10;0.10;;;;;;;;;;5035223;28;20241;-60
2021/01/14 00:49:51;;;;;;;0.00;0.00;;;;;;;;;;5036184;28;20328;-59
2021/01/14 00:52:20;;;;;;;0.00;0.00;;;;;;;;;;5041101;28;20191;-60
2021/01/14 00:54:46;;;;;;;0.00;0.00;;;;;;;;;;5039352;28;20293;-61
2021/01/14 00:57:13;;;;;;;0.00;0.00;;;;;;;;;;5033716;28;20178;-62
2021/01/14 00:59:40;;;;;;;0.00;0.00;;;;;;;;;;5042420;28;20825;-61
2021/01/14 01:02:07;;;;;;;0.00;0.00;;;;;;;;;;5039740;28;20191;-61
2021/01/14 01:04:33;;;;;;;0.00;0.00;;;;;;;;;;5030969;28;20214;-59
2021/01/14 01:07:00;;;;;;;0.00;0.00;;;;;;;;;;5038034;28;20194;-63
2021/01/14 01:09:28;;;;;;;0.00;0.00;;;;;;;;;;5034355;28;20183;-60
2021/01/14 01:11:55;;;;;;;0.00;0.00;;;;;;;;;;5036060;28;20563;-61
2021/01/14 01:14:43;;;;;;;0.07;0.07;;;;;;;;;;5035364;28;20183;-63
2021/01/14 01:17:10;;;;;;;0.00;0.00;;;;;;;;;;5030187;28;20195;-63
2021/01/14 01:19:37;;;;;;;1.20;0.77;;;;;;;;;;5029328;28;20321;-60
2021/01/14 01:22:05;;;;;;;0.00;0.00;;;;;;;;;;5028126;28;20469;-62
2021/01/14 01:24:31;;;;;;;0.00;0.00;;;;;;;;;;5036478;28;20226;-62
2021/01/14 01:26:58;;;;;;;0.00;0.00;;;;;;;;;;5028545;28;20184;-62
2021/01/14 01:29:25;;;;;;;0.00;0.00;;;;;;;;;;5036863;28;20206;-62
2021/01/14 01:31:51;;;;;;;6.33;0.47;;;;;;;;;;5030302;28;20187;-63
2021/01/14 01:34:18;;;;;;;0.00;0.00;;;;;;;;;;5037873;28;20182;-61
2021/01/14 01:36:51;;;;;;;0.00;0.00;;;;;;;;;;5033878;28;20692;-61
2021/01/14 01:39:17;;;;;;;0.00;0.00;;;;;;;;;;5028509;28;20245;-63
2021/01/14 01:41:45;;;;;;;1.73;0.30;;;;;;;;;;5033672;28;20348;-63
2021/01/14 01:44:14;;;;;;;0.20;0.20;;;;;;;;;;5039602;28;20217;-60
2021/01/14 01:46:41;;;;;;;0.00;0.00;;;;;;;;;;5033185;28;20218;-61
2021/01/14 01:49:10;;;;;;;0.00;0.00;;;;;;;;;;5036570;28;20178;-59
2021/01/14 01:51:39;;;;;;;0.53;0.10;;;;;;;;;;5033242;28;20187;-61
2021/01/14 01:54:06;;;;;;;0.00;0.00;;;;;;;;;;5026740;28;20180;-60
2021/01/14 01:56:34;;;;;;;0.00;0.00;;;;;;;;;;5034533;28;20237;-62
2021/01/14 01:59:02;;;;;;;0.00;0.00;;;;;;;;;;5041084;28;20184;-59
2021/01/14 02:01:29;;;;;;;0.00;0.00;;;;;;;;;;5036532;28;20837;-60
2021/01/14 02:03:55;;;;;;;0.00;0.00;;;;;;;;;;5039053;28;20277;-60
2021/01/14 02:06:22;;;;;;;0.00;0.00;;;;;;;;;;5021408;28;20184;-60
2021/01/14 02:08:56;;;;;;;2.13;0.87;;;;;;;;;;5030823;28;20276;-62
2021/01/14 02:11:55;;;;;;;2.33;0.40;;;;;;;;;;5035706;28;20660;-59
2021/01/14 02:14:25;;;;;;;0.10;0.10;;;;;;;;;;5030723;28;20946;-60
2021/01/14 02:16:52;;;;;;;0.53;0.20;;;;;;;;;;5030811;28;20184;-61
2021/01/14 02:19:18;;;;;;;0.00;0.00;;;;;;;;;;5033343;28;20803;-62
2021/01/14 02:21:46;;;;;;;0.00;0.00;;;;;;;;;;5023486;28;20319;-60
2021/01/14 02:24:24;;;;;;;0.00;0.00;;;;;;;;;;5030509;28;20313;-62
2021/01/14 02:26:51;;;;;;;9.13;0.93;;;;;;;;;;5033808;28;20187;-60
2021/01/14 02:29:18;;;;;;;0.00;0.00;;;;;;;;;;5033760;28;20194;-61
2021/01/14 02:31:44;;;;;;;0.00;0.00;;;;;;;;;;5026862;28;20184;-62
2021/01/14 02:34:11;;;;;;;0.20;0.20;;;;;;;;;;5042014;28;20796;-60
2021/01/14 02:36:38;;;;;;;0.00;0.00;;;;;;;;;;5036949;28;20235;-60
2021/01/14 02:39:05;;;;;;;0.00;0.00;;;;;;;;;;5040543;28;20183;-61
2021/01/14 02:41:36;;;;;;;0.00;0.00;;;;;;;;;;5031250;28;20214;-60
2021/01/14 02:44:05;;;;;;;0.10;0.10;;;;;;;;;;5028186;28;20566;-62
2021/01/14 02:46:32;;;;;;;0.00;0.00;;;;;;;;;;5036979;28;20181;-60
2021/01/14 02:49:09;;;;;;;0.00;0.00;;;;;;;;;;5029206;28;20801;-61
2021/01/14 02:51:36;;;;;;;0.00;0.00;;;;;;;;;;5032378;28;20259;-61
2021/01/14 02:54:05;;;;;;;0.00;0.00;;;;;;;;;;5028246;28;20194;-59
2021/01/14 02:56:36;;;;;;;0.10;0.10;;;;;;;;;;5036744;28;20194;-60
2021/01/14 02:59:03;;;;;;;0.00;0.00;;;;;;;;;;5038107;28;20187;-60
2021/01/14 03:01:30;;;;;;;0.10;0.10;;;;;;;;;;5029268;28;20245;-60
2021/01/14 03:03:57;;;;;;;0.00;0.00;;;;;;;;;;5026194;28;20878;-62
2021/01/14 03:06:27;;;;;;;0.00;0.00;;;;;;;;;;5026618;28;20190;-60
2021/01/14 03:08:53;;;;;;;0.00;0.00;;;;;;;;;;5029802;28;20191;-60
2021/01/14 03:11:29;;;;;;;0.00;0.00;;;;;;;;;;5035077;28;20684;-63
2021/01/14 03:14:04;;;;;;;2.73;0.40;;;;;;;;;;5069346;28;20324;-61
2021/01/14 03:16:36;;;;;;;0.00;0.00;;;;;;;;;;5033862;28;20214;-60
2021/01/14 03:19:03;;;;;;;0.00;0.00;;;;;;;;;;5038198;28;20183;-60
2021/01/14 03:21:29;;;;;;;0.00;0.00;;;;;;;;;;5030744;28;20732;-60
2021/01/14 03:23:56;;;;;;;0.00;0.00;;;;;;;;;;5027323;28;20222;-62
2021/01/14 03:26:23;;;;;;;0.00;0.00;;;;;;;;;;5036998;28;20191;-59
2021/01/14 03:28:50;;;;;;;0.00;0.00;;;;;;;;;;5030831;28;20183;-61
2021/01/14 03:31:17;;;;;;;5.40;0.70;;;;;;;;;;5040882;28;20532;-60
2021/01/14 03:33:45;;;;;;;0.00;0.00;;;;;;;;;;5038221;28;20566;-60
2021/01/14 03:36:14;;;;;;;0.00;0.00;;;;;;;;;;5031104;28;20270;-59
2021/01/14 03:38:41;;;;;;;0.10;0.10;;;;;;;;;;5030210;28;20175;-60
2021/01/14 03:41:09;;;;;;;0.00;0.00;;;;;;;;;;5035929;28;20213;-60
2021/01/14 03:43:35;;;;;;;0.10;0.10;;;;;;;;;;5034696;28;20220;-61
2021/01/14 03:46:06;;;;;;;0.00;0.00;;;;;;;;;;5036072;28;20183;-61
2021/01/14 03:48:38;;;;;;;0.00;0.00;;;;;;;;;;5033712;28;20361;-62
2021/01/14 03:51:05;;;;;;;1.00;0.67;;;;;;;;;;5036016;28;20432;-61
2021/01/14 03:53:32;;;;;;;0.00;0.00;;;;;;;;;;5037124;28;20184;-60
2021/01/14 03:55:58;;;;;;;0.10;0.10;;;;;;;;;;5030626;28;20187;-60
2021/01/14 03:58:28;;;;;;;0.10;0.10;;;;;;;;;;5036359;28;20256;-60
2021/01/14 04:00:57;;;;;;;0.00;0.00;;;;;;;;;;5037336;28;20278;-61
2021/01/14 04:03:26;;;;;;;0.00;0.00;;;;;;;;;;5041658;28;20270;-62
2021/01/14 04:05:53;;;;;;;0.30;0.30;;;;;;;;;;5040579;28;20183;-61
2021/01/14 14:30:05;;;;;;;2.13;0.97;;;;;;;;;;5113338;27;20650;-62
2021/01/14 14:32:31;;;;;;;0.57;0.30;;;;;;;;;;5097079;28;20202;-64
2021/01/14 14:34:58;;;;;;;0.63;0.27;;;;;;;;;;5097166;28;20608;-62
2021/01/14 14:37:26;;;;;;;0.00;0.00;;;;;;;;;;5095431;27;20654;-62
2021/01/14 14:39:53;;;;;;;0.00;0.00;;;;;;;;;;5087856;28;20209;-63
2021/01/14 14:42:19;;;;;;;0.00;0.00;;;;;;;;;;5094565;28;20612;-63
2021/01/14 14:44:46;;;;;;;0.90;0.60;;;;;;;;;;5098276;27;20170;-62
2021/01/14 14:47:13;;;;;;;0.57;0.30;;;;;;;;;;5092823;28;20196;-62
2021/01/14 14:49:40;;;;;;;0.13;0.13;;;;;;;;;;5094014;28;20210;-62
2021/01/14 14:52:06;;;;;;;3.83;1.17;;;;;;;;;;5097111;28;20254;-63
2021/01/14 14:54:33;;;;;;;0.40;0.40;;;;;;;;;;5092352;28;20197;-62
2021/01/14 14:57:00;;;;;;;0.00;0.00;;;;;;;;;;5093720;28;20182;-61
2021/01/14 14:59:26;;;;;;;0.67;0.23;;;;;;;;;;5095828;28;20664;-63
2021/01/14 15:01:56;;;;;;;0.00;0.00;;;;;;;;;;5098661;27;20254;-62
2021/01/14 15:04:23;;;;;;;0.00;0.00;;;;;;;;;;5082542;28;20293;-62
2021/01/14 15:06:55;;;;;;;0.43;0.00;;;;;;;;;;5089783;28;20185;-62
2021/01/14 15:09:22;;;;;;;0.00;0.00;;;;;;;;;;5082115;28;20265;-65
2021/01/14 15:11:49;;;;;;;0.00;0.00;;;;;;;;;;5093958;28;20901;-62
2021/01/14 15:14:15;;;;;;;0.00;0.00;;;;;;;;;;5086972;28;20434;-64
2021/01/14 15:16:42;;;;;;;0.00;0.00;;;;;;;;;;5088949;28;20178;-65
2021/01/14 15:19:09;;;;;;;2.60;1.10;;;;;;;;;;5083246;28;20755;-63
2021/01/14 15:21:35;;;;;;;9.63;0.83;;;;;;;;;;5089832;28;20181;-66
2021/01/14 15:24:02;;;;;;;0.00;0.00;;;;;;;;;;5090357;28;20170;-63
2021/01/14 15:26:28;;;;;;;0.83;0.10;;;;;;;;;;5091600;28;20277;-62
2021/01/14 15:28:55;;;;;;;1.00;0.20;;;;;;;;;;5092741;28;20249;-64
2021/01/14 15:31:22;;;;;;;0.10;0.10;;;;;;;;;;5091972;28;20231;-62
2021/01/14 15:33:48;;;;;;;2.10;2.00;;;;;;;;;;5093050;28;20508;-62
2021/01/14 15:36:18;;;;;;;0.40;0.40;;;;;;;;;;5091259;28;20182;-62
2021/01/14 15:38:45;;;;;;;0.63;0.33;;;;;;;;;;5089392;28;20186;-62
2021/01/14 15:41:12;;;;;;;0.10;0.10;;;;;;;;;;5080035;28;20179;-62
2021/01/14 15:43:39;;;;;;;0.00;0.00;;;;;;;;;;5067005;28;20178;-62
2021/01/14 15:46:05;;;;;;;3.27;0.57;;;;;;;;;;5064677;28;20194;-63
2021/01/14 15:48:32;;;;;;;0.10;0.10;;;;;;;;;;5076768;28;20744;-61
2021/01/14 15:51:00;;;;;;;0.10;0.10;;;;;;;;;;5081250;28;20178;-62
2021/01/14 15:53:27;;;;;;;7.33;0.63;;;;;;;;;;5076971;28;20792;-62
2021/01/14 15:55:53;;;;;;;1.07;0.30;;;;;;;;;;5080397;28;20182;-62
2021/01/14 15:58:21;;;;;;;0.00;0.00;;;;;;;;;;5071462;28;20178;-63
2021/01/14 16:00:47;;;;;;;0.10;0.10;;;;;;;;;;5076002;28;20182;-64
2021/01/14 16:03:14;;;;;;;0.00;0.00;;;;;;;;;;5073815;28;20210;-62
2021/01/14 16:05:41;;;;;;;0.10;0.10;;;;;;;;;;5076150;28;20177;-62
2021/01/14 16:08:07;;;;;;;0.07;0.07;;;;;;;;;;5078535;28;20718;-65
2021/01/14 16:10:34;;;;;;;0.20;0.20;;;;;;;;;;5079389;28;20195;-61
2021/01/14 16:13:01;;;;;;;1.20;0.47;;;;;;;;;;5073267;28;20170;-62
2021/01/14 16:15:27;;;;;;;0.43;0.10;;;;;;;;;;5080497;28;20198;-64
2021/01/14 16:17:54;;;;;;;0.10;0.10;;;;;;;;;;5069718;28;20269;-61
2021/01/14 16:20:21;;;;;;;0.67;0.50;;;;;;;;;;5072801;28;20675;-61
2021/01/14 16:22:48;;;;;;;4.20;1.17;;;;;;;;;;5072829;28;20185;-62
2021/01/14 16:25:14;;;;;;;0.10;0.10;;;;;;;;;;5074442;28;20210;-61
2021/01/14 16:27:41;;;;;;;0.00;0.00;;;;;;;;;;5062910;28;20193;-62
2021/01/14 16:30:08;;;;;;;1.50;0.10;;;;;;;;;;5072282;28;20486;-62
2021/01/14 16:32:34;;;;;;;0.60;0.37;;;;;;;;;;5073079;28;20532;-61
2021/01/14 16:35:01;;;;;;;0.07;0.07;;;;;;;;;;5072422;28;20573;-62
2021/01/14 16:37:30;;;;;;;3.13;0.47;;;;;;;;;;5082395;28;20712;-63
2021/01/14 16:39:57;;;;;;;1.60;0.43;;;;;;;;;;5070150;28;20216;-64
2021/01/14 16:42:24;;;;;;;0.00;0.00;;;;;;;;;;5071871;28;20178;-62
2021/01/14 16:44:51;;;;;;;3.03;0.40;;;;;;;;;;5069931;28;20186;-62
2021/01/14 16:47:18;;;;;;;0.20;0.20;;;;;;;;;;5074514;28;20179;-62
2021/01/14 16:49:46;;;;;;;1.43;0.27;;;;;;;;;;5063541;28;20219;-61
2021/01/14 16:52:13;;;;;;;2.80;0.30;;;;;;;;;;5088786;28;20527;-62
2021/01/14 16:54:40;;;;;;;0.63;0.20;;;;;;;;;;5074941;28;20174;-61
2021/01/14 16:57:07;;;;;;;0.10;0.10;;;;;;;;;;5068616;28;20190;-63
2021/01/14 16:59:34;;;;;;;0.00;0.00;;;;;;;;;;5067459;28;20183;-63
2021/01/14 17:02:01;;;;;;;0.00;0.00;;;;;;;;;;5078754;28;20305;-60
2021/01/14 17:04:29;;;;;;;2.03;0.50;;;;;;;;;;5075442;28;20202;-65
2021/01/14 17:06:55;;;;;;;0.03;0.03;;;;;;;;;;5081002;28;20914;-61
2021/01/14 17:09:22;;;;;;;1.60;0.37;;;;;;;;;;5074557;28;20741;-61
2021/01/14 17:11:49;;;;;;;0.17;0.17;;;;;;;;;;5070733;28;20324;-60
2021/01/14 17:14:15;;;;;;;0.20;0.20;;;;;;;;;;5069193;28;20227;-62
2021/01/14 17:16:49;;;;;;;1.33;0.30;;;;;;;;;;5073935;28;20182;-61
2021/01/14 17:19:16;;;;;;;0.77;0.30;;;;;;;;;;5079955;28;20219;-63
2021/01/14 17:21:42;;;;;;;1.47;0.60;;;;;;;;;;5070533;28;20179;-63
2021/01/14 17:24:09;;;;;;;0.10;0.10;;;;;;;;;;5085575;28;20951;-61
2021/01/14 17:26:38;;;;;;;0.00;0.00;;;;;;;;;;5076730;28;20220;-61
2021/01/14 17:29:05;;;;;;;1.37;0.97;;;;;;;;;;5070856;28;20243;-62
2021/01/14 17:31:33;;;;;;;0.63;0.23;;;;;;;;;;5063592;28;20187;-63
2021/01/14 17:34:00;;;;;;;1.63;0.30;;;;;;;;;;5067086;28;20271;-61
2021/01/14 17:36:30;;;;;;;0.90;0.87;;;;;;;;;;5062698;28;20183;-63
2021/01/14 17:38:57;;;;;;;0.00;0.00;;;;;;;;;;5089430;28;20186;-64
2021/01/14 17:41:24;;;;;;;0.20;0.20;;;;;;;;;;5069621;28;20220;-61
2021/01/14 17:43:51;;;;;;;2.93;0.30;;;;;;;;;;5075223;28;20634;-62
2021/01/14 17:46:19;;;;;;;0.03;0.03;;;;;;;;;;5079341;28;20642;-60
2021/01/14 17:48:50;;;;;;;2.23;0.80;;;;;;;;;;5064195;28;20222;-62
2021/01/14 17:51:18;;;;;;;0.00;0.00;;;;;;;;;;5078235;28;20255;-62
2021/01/14 17:53:45;;;;;;;0.00;0.00;;;;;;;;;;5082256;28;20858;-61
2021/01/14 17:56:17;;;;;;;0.83;0.20;;;;;;;;;;5075362;28;20652;-63
2021/01/14 17:58:45;;;;;;;1.90;0.30;;;;;;;;;;5062758;28;20240;-61
2021/01/14 18:01:12;;;;;;;0.20;0.20;;;;;;;;;;5072858;28;20207;-61
2021/01/14 18:03:44;;;;;;;15.60;1.17;;;;;;;;;;5063009;28;20167;-63
2021/01/14 18:06:19;;;;;;;0.10;0.10;;;;;;;;;;5069864;28;20183;-62
2021/01/14 18:08:45;;;;;;;0.40;0.40;;;;;;;;;;5069806;28;20317;-63
2021/01/14 18:11:12;;;;;;;1.47;1.23;;;;;;;;;;5069450;28;20285;-62
2021/01/14 18:13:39;;;;;;;0.47;0.47;;;;;;;;;;5072517;28;20283;-65
2021/01/14 18:16:06;;;;;;;0.10;0.10;;;;;;;;;;5068228;28;21164;-63
2021/01/14 18:18:32;;;;;;;4.07;1.07;;;;;;;;;;5070511;28;20186;-64
2021/01/14 18:20:59;;;;;;;0.47;0.47;;;;;;;;;;5065668;28;20249;-64
2021/01/14 18:23:26;;;;;;;0.07;0.07;;;;;;;;;;5071386;28;20677;-62
2021/01/14 18:25:53;;;;;;;0.63;0.63;;;;;;;;;;5060669;28;20186;-63
2021/01/14 18:28:20;;;;;;;0.00;0.00;;;;;;;;;;5068328;28;20237;-64
2021/01/14 18:30:46;;;;;;;0.10;0.10;;;;;;;;;;5069262;28;20198;-64
2021/01/14 18:33:13;;;;;;;0.00;0.00;;;;;;;;;;5068435;28;20625;-62
2021/01/14 18:35:39;;;;;;;0.40;0.40;;;;;;;;;;5071327;28;20209;-63
2021/01/14 18:38:11;;;;;;;1.13;1.03;;;;;;;;;;5078464;28;20752;-61
2021/01/14 18:40:38;;;;;;;0.10;0.10;;;;;;;;;;5067802;28;20178;-64
2021/01/14 18:43:05;;;;;;;0.10;0.10;;;;;;;;;;5065770;28;20179;-62
2021/01/14 18:45:32;;;;;;;1.03;0.90;;;;;;;;;;5067162;28;20185;-60
2021/01/14 18:47:59;;;;;;;0.57;0.57;;;;;;;;;;5072632;28;20287;-62
2021/01/14 18:50:29;;;;;;;0.10;0.10;;;;;;;;;;5078972;28;20193;-62
2021/01/14 18:52:56;;;;;;;0.43;0.43;;;;;;;;;;5078614;28;20194;-64
2021/01/14 18:55:24;;;;;;;4.53;1.03;;;;;;;;;;5070844;28;20179;-62
2021/01/14 18:57:50;;;;;;;0.10;0.10;;;;;;;;;;5064688;28;20231;-60
2021/01/14 19:00:17;;;;;;;0.00;0.00;;;;;;;;;;5072698;28;20898;-62
2021/01/14 19:02:44;;;;;;;0.37;0.30;;;;;;;;;;5071626;28;20182;-60
2021/01/14 19:05:13;;;;;;;0.47;0.47;;;;;;;;;;5071036;28;20179;-60
2021/01/14 19:07:40;;;;;;;0.73;0.73;;;;;;;;;;5064930;28;20187;-61
2021/01/14 19:10:07;;;;;;;1.17;1.07;;;;;;;;;;5070247;28;20272;-64
2021/01/14 19:12:34;;;;;;;0.77;0.77;;;;;;;;;;5078505;28;20187;-61
2021/01/14 19:15:01;;;;;;;2.13;0.43;;;;;;;;;;5079200;28;20186;-60
2021/01/14 19:17:28;;;;;;;0.20;0.20;;;;;;;;;;5074067;28;20190;-62
2021/01/14 19:19:55;;;;;;;0.47;0.10;;;;;;;;;;5063552;28;20183;-62
2021/01/14 19:22:22;;;;;;;0.40;0.40;;;;;;;;;;5062704;28;20361;-63
2021/01/14 19:24:49;;;;;;;1.53;1.43;;;;;;;;;;5062750;28;20183;-62
2021/01/14 19:27:16;;;;;;;0.00;0.00;;;;;;;;;;5067558;28;20760;-63
2021/01/14 19:29:42;;;;;;;0.00;0.00;;;;;;;;;;5079557;28;20239;-63
2021/01/14 19:32:09;;;;;;;0.10;0.10;;;;;;;;;;5089566;28;20181;-61
2021/01/14 19:34:36;;;;;;;0.00;0.00;;;;;;;;;;5073542;28;20812;-62
2021/01/14 19:37:05;;;;;;;0.80;0.43;;;;;;;;;;5075582;28;20183;-61
2021/01/14 19:39:32;;;;;;;0.23;0.23;;;;;;;;;;5077394;28;20652;-62
2021/01/14 19:41:58;;;;;;;0.10;0.10;;;;;;;;;;5083171;28;20193;-62
2021/01/14 19:44:25;;;;;;;0.27;0.17;;;;;;;;;;5083318;28;20256;-60
2021/01/14 19:46:52;;;;;;;2.93;0.73;;;;;;;;;;5076305;28;20182;-63
2021/01/14 19:49:20;;;;;;;0.40;0.40;;;;;;;;;;5063932;28;20747;-61
2021/01/14 19:51:47;;;;;;;0.60;0.60;;;;;;;;;;5063148;28;20629;-63
2021/01/14 19:54:13;;;;;;;0.10;0.10;;;;;;;;;;5063723;28;20559;-60
2021/01/14 19:56:40;;;;;;;1.63;0.40;;;;;;;;;;5070603;28;20175;-61
2021/01/14 19:59:07;;;;;;;0.10;0.10;;;;;;;;;;5063343;28;20209;-62
2021/01/14 20:01:33;;;;;;;0.30;0.10;;;;;;;;;;5072453;28;20183;-62
2021/01/14 20:04:00;;;;;;;0.10;0.10;;;;;;;;;;5063154;28;20270;-61
2021/01/14 20:06:27;;;;;;;0.20;0.20;;;;;;;;;;5062919;28;20182;-63
2021/01/14 20:08:53;;;;;;;0.10;0.10;;;;;;;;;;5076625;28;20226;-62
2021/01/14 20:11:27;;;;;;;0.10;0.10;;;;;;;;;;5086642;28;20201;-60
2021/01/14 20:13:54;;;;;;;1.13;0.23;;;;;;;;;;5063794;28;20190;-61
2021/01/14 20:16:23;;;;;;;1.03;0.27;;;;;;;;;;5075603;28;20189;-61
2021/01/14 20:18:50;;;;;;;1.73;1.20;;;;;;;;;;5063560;28;20191;-61
2021/01/14 20:21:17;;;;;;;0.10;0.10;;;;;;;;;;5065188;28;20183;-62
2021/01/14 20:23:44;;;;;;;0.10;0.10;;;;;;;;;;5073674;28;20186;-61
2021/01/14 20:26:11;;;;;;;0.27;0.27;;;;;;;;;;5083143;28;20255;-61
2021/01/14 20:28:38;;;;;;;1.30;0.63;;;;;;;;;;5078324;28;20233;-60
2021/01/14 20:31:05;;;;;;;0.10;0.10;;;;;;;;;;5085276;28;20254;-63
2021/01/14 20:33:32;;;;;;;0.10;0.10;;;;;;;;;;5088546;28;20189;-61
2021/01/14 20:35:59;;;;;;;0.10;0.10;;;;;;;;;;5072970;28;20867;-61
2021/01/14 20:38:25;;;;;;;0.83;0.30;;;;;;;;;;5077999;28;20217;-60
2021/01/14 20:40:52;;;;;;;0.10;0.10;;;;;;;;;;5071866;28;20260;-61
2021/01/14 20:43:20;;;;;;;0.20;0.20;;;;;;;;;;5066323;28;20564;-60
2021/01/14 20:45:47;;;;;;;0.10;0.10;;;;;;;;;;5071195;28;20191;-61
2021/01/14 20:48:14;;;;;;;0.17;0.17;;;;;;;;;;5079931;28;20221;-60
2021/01/14 20:50:41;;;;;;;0.17;0.17;;;;;;;;;;5069298;28;20233;-62
2021/01/14 20:53:08;;;;;;;0.37;0.37;;;;;;;;;;5076911;28;20560;-63
2021/01/14 20:55:34;;;;;;;1.50;0.93;;;;;;;;;;5078738;28;20363;-61
2021/01/14 20:58:01;;;;;;;0.20;0.10;;;;;;;;;;5075865;28;20186;-61
2021/01/14 21:00:27;;;;;;;0.00;0.00;;;;;;;;;;5075505;28;20550;-63
2021/01/14 21:02:55;;;;;;;4.27;0.80;;;;;;;;;;5070493;28;20725;-62
2021/01/14 21:05:22;;;;;;;0.30;0.10;;;;;;;;;;5076220;28;21092;-61
2021/01/14 21:07:48;;;;;;;0.10;0.10;;;;;;;;;;5074941;28;20182;-60
2021/01/14 21:10:15;;;;;;;0.10;0.10;;;;;;;;;;5076880;28;20577;-61
2021/01/14 21:12:42;;;;;;;0.30;0.30;;;;;;;;;;5071570;28;20211;-62
2021/01/14 21:15:09;;;;;;;0.00;0.00;;;;;;;;;;5080009;28;20178;-60
2021/01/14 21:17:37;;;;;;;0.07;0.07;;;;;;;;;;5075811;28;20185;-61
2021/01/14 21:20:04;;;;;;;0.00;0.00;;;;;;;;;;5074849;28;20805;-61
2021/01/14 21:22:35;;;;;;;0.37;0.37;;;;;;;;;;5079408;28;20170;-62
2021/01/14 21:25:01;;;;;;;1.60;0.57;;;;;;;;;;5081077;28;20278;-61
2021/01/14 21:27:28;;;;;;;0.00;0.00;;;;;;;;;;5078615;28;20189;-62
2021/01/14 21:29:55;;;;;;;0.00;0.00;;;;;;;;;;5082845;28;20546;-62
2021/01/14 21:32:21;;;;;;;0.10;0.10;;;;;;;;;;5077351;28;20181;-61
2021/01/14 21:34:48;;;;;;;0.00;0.00;;;;;;;;;;5079741;28;20465;-65
2021/01/14 21:37:14;;;;;;;0.00;0.00;;;;;;;;;;5078015;28;20533;-62
2021/01/14 21:39:41;;;;;;;0.00;0.00;;;;;;;;;;5079993;28;20192;-62
2021/01/14 21:42:08;;;;;;;0.13;0.13;;;;;;;;;;5064564;28;20186;-65
2021/01/14 21:44:35;;;;;;;0.00;0.00;;;;;;;;;;5077511;28;20193;-62
2021/01/14 21:47:10;;;;;;;0.00;0.00;;;;;;;;;;5074513;28;20189;-61
2021/01/14 21:49:37;;;;;;;0.00;0.00;;;;;;;;;;5073302;28;20271;-63
2021/01/14 21:52:03;;;;;;;0.00;0.00;;;;;;;;;;5077307;28;20187;-62
2021/01/14 21:54:30;;;;;;;0.00;0.00;;;;;;;;;;5079108;28;21338;-63
2021/01/14 21:56:57;;;;;;;0.00;0.00;;;;;;;;;;5069205;28;20727;-61
2021/01/14 21:59:24;;;;;;;0.00;0.00;;;;;;;;;;5072849;28;20719;-62
2021/01/14 22:01:50;;;;;;;0.00;0.00;;;;;;;;;;5075840;28;20187;-61
2021/01/14 22:04:17;;;;;;;0.00;0.00;;;;;;;;;;5070781;28;20189;-63
2021/01/14 22:06:46;;;;;;;0.00;0.00;;;;;;;;;;5075047;28;20182;-62
2021/01/14 22:09:13;;;;;;;0.00;0.00;;;;;;;;;;5083105;28;20221;-62
2021/01/14 22:11:40;;;;;;;0.00;0.00;;;;;;;;;;5083978;28;20181;-64
2021/01/14 22:14:07;;;;;;;0.83;0.83;;;;;;;;;;5076324;28;20178;-62
2021/01/14 22:16:34;;;;;;;0.03;0.03;;;;;;;;;;5075939;28;20188;-60
2021/01/14 22:19:01;;;;;;;2.20;0.33;;;;;;;;;;5073801;28;20183;-61
2021/01/14 22:21:28;;;;;;;0.00;0.00;;;;;;;;;;5080505;28;20251;-62
2021/01/14 22:23:55;;;;;;;0.00;0.00;;;;;;;;;;5071916;28;20273;-62
2021/01/14 22:26:41;;;;;;;0.00;0.00;;;;;;;;;;5073837;28;20196;-63
2021/01/14 22:29:08;;;;;;;0.00;0.00;;;;;;;;;;5073709;28;20424;-62
2021/01/14 22:31:40;;;;;;;0.00;0.00;;;;;;;;;;5075416;28;20177;-62
2021/01/14 22:34:08;;;;;;;0.00;0.00;;;;;;;;;;5060970;28;20181;-64
2021/01/14 22:36:39;;;;;;;0.00;0.00;;;;;;;;;;5072479;28;20184;-63
2021/01/14 22:39:05;;;;;;;0.00;0.00;;;;;;;;;;5072507;28;20228;-61
2021/01/14 22:41:32;;;;;;;0.00;0.00;;;;;;;;;;5065719;28;20185;-61
2021/01/14 22:43:59;;;;;;;0.30;0.27;;;;;;;;;;5073862;28;20188;-61
2021/01/14 22:46:26;;;;;;;0.00;0.00;;;;;;;;;;5072221;28;20185;-60
2021/01/14 22:48:53;;;;;;;0.60;0.60;;;;;;;;;;5067215;28;20213;-61
2021/01/14 22:51:29;;;;;;;0.00;0.00;;;;;;;;;;5067476;28;20208;-60
2021/01/14 22:53:56;;;;;;;0.00;0.00;;;;;;;;;;5074132;28;20178;-61
2021/01/14 22:56:33;;;;;;;0.07;0.07;;;;;;;;;;5076099;28;20175;-62
2021/01/14 22:59:01;;;;;;;0.00;0.00;;;;;;;;;;5072960;28;20752;-60
2021/01/14 23:01:38;;;;;;;0.00;0.00;;;;;;;;;;5082361;28;20264;-61
2021/01/14 23:04:13;;;;;;;0.00;0.00;;;;;;;;;;5083180;28;20211;-60
2021/01/14 23:06:42;;;;;;;0.00;0.00;;;;;;;;;;5071325;28;20235;-62
2021/01/14 23:09:09;;;;;;;0.00;0.00;;;;;;;;;;5073266;28;20228;-61
2021/01/14 23:11:36;;;;;;;0.00;0.00;;;;;;;;;;5073905;28;20176;-61
2021/01/14 23:14:03;;;;;;;0.00;0.00;;;;;;;;;;5069572;28;20181;-62
2021/01/14 23:16:35;;;;;;;0.93;0.87;;;;;;;;;;5081787;28;20189;-62
2021/01/14 23:19:01;;;;;;;0.00;0.00;;;;;;;;;;5082211;28;20232;-60
2021/01/14 23:21:28;;;;;;;0.00;0.00;;;;;;;;;;5078262;28;20188;-62
2021/01/14 23:23:55;;;;;;;0.00;0.00;;;;;;;;;;5079104;28;20909;-60
2021/01/14 23:26:21;;;;;;;0.00;0.00;;;;;;;;;;5081804;28;20597;-60
2021/01/14 23:28:48;;;;;;;0.00;0.00;;;;;;;;;;5074112;28;20336;-62
2021/01/14 23:31:22;;;;;;;0.00;0.00;;;;;;;;;;5076980;28;20182;-60
2021/01/14 23:33:49;;;;;;;0.00;0.00;;;;;;;;;;5083769;28;20191;-61
2021/01/14 23:36:26;;;;;;;0.00;0.00;;;;;;;;;;5082330;28;20242;-62
2021/01/14 23:38:53;;;;;;;0.00;0.00;;;;;;;;;;5076269;28;20185;-60
2021/01/14 23:41:21;;;;;;;0.00;0.00;;;;;;;;;;5077151;28;20174;-61
2021/01/14 23:43:48;;;;;;;0.10;0.10;;;;;;;;;;5082604;28;20192;-60
2021/01/14 23:46:14;;;;;;;0.00;0.00;;;;;;;;;;5068530;28;20193;-60
2021/01/14 23:48:41;;;;;;;0.00;0.00;;;;;;;;;;5065418;28;20237;-61
2021/01/14 23:51:15;;;;;;;0.00;0.00;;;;;;;;;;5079092;28;20672;-61
2021/01/14 23:53:42;;;;;;;0.00;0.00;;;;;;;;;;5073580;28;20190;-60
2021/01/14 23:56:09;;;;;;;0.00;0.00;;;;;;;;;;5075422;28;20213;-61
2021/01/14 23:58:36;;;;;;;0.00;0.00;;;;;;;;;;5079645;28;20348;-60
